logo
Rechercher aéroport 
image banner adimage banner adimage banner ad
image banner ad

CL97 - Scripps Mercy Hospital

Situé à San Diego, United States

ICAO - CL97, IATA -

Données fournies par Airmate  

Information générale

Coordonnées: N32°45'5" W117°9'38"
Élévation : 330 feet MSL.
Variation magnétique : 13° East
Voir autres Aéroports à California

Données opérationnelles

Special qualification required
Heure actuelle UTC:
Heure actuelle locale:
Météo à : KSAN - San Diego Intl ( 3 km )
METAR: KSAN 281251Z 00000KT 3/4SM R09/4000V5000FT BR VV002 21/19 A2990 RMK AO2 SLP125 T02060194
TAF: KSAN 281259Z 2813/2918 VRB03KT 1/2SM FG VV002 FM281430 VRB03KT 2SM BR BKN004 FM281630 28005KT P6SM SCT005 SCT150 FM281900 28010KT P6SM SCT100 SCT150 FM290300 18005KT P6SM SCT008 TEMPO 2903/2907 6SM BR BKN007 FM290700 VRB04KT 5SM BR BKN007 FM291600 18005KT 6SM HZ SCT009
Voir NOTAMs / SUP AIP / TFR affectant cet aéroport [VIEW]
Fréquences de communication: [VIEW]

Pistes:

Coordonnées de l'aéroport

Adresse: San Diego United States

Vue satellite de CL97